Terminal Aerodrome Forecast
Issued by NWS Omaha/Valley, NE

Home | Current Version | Previous Version | Text Only | Print | Product List | Glossary On
Versions: 1 2 3 4 5 6 7 8 9 10 11 12 13 14 15 16 17 18 19
000
FTUS43 KOAX 290520
TAFOFK
TAF
KOFK 290520Z 2906/3006 01009KT P6SM BKN050
     FM290800 01011KT P6SM SCT060 BKN120
     FM291500 03012KT P6SM SCT025 OVC100
     FM291800 03015G23KT P6SM VCSH OVC025
      TEMPO 2919/2923 4SM -RA OVC015
     FM300000 03014KT P6SM OVC025=

USA.gov is the U.S. government's official web portal to all federal, state and local government web resources and services.